sensor_id;sensor_type;location;lat;lon;timestamp;temperature;humidity
27940;DHT22;15275;51.716;14.324;2023-04-15T00:01:25;12.20;88.40
27940;DHT22;15275;51.716;14.324;2023-04-15T00:03:53;12.20;88.30
27940;DHT22;15275;51.716;14.324;2023-04-15T00:06:22;12.20;88.20
27940;DHT22;15275;51.716;14.324;2023-04-15T00:08:48;12.20;88.10
27940;DHT22;15275;51.716;14.324;2023-04-15T00:11:18;12.20;88.10
27940;DHT22;15275;51.716;14.324;2023-04-15T00:13:44;12.20;88.20
27940;DHT22;15275;51.716;14.324;2023-04-15T00:16:10;12.20;88.10
27940;DHT22;15275;51.716;14.324;2023-04-15T00:18:36;12.20;88.10
27940;DHT22;15275;51.716;14.324;2023-04-15T00:21:04;12.30;88.10
27940;DHT22;15275;51.716;14.324;2023-04-15T00:23:30;12.30;88.10
27940;DHT22;15275;51.716;14.324;2023-04-15T00:25:56;12.30;88.20
27940;DHT22;15275;51.716;14.324;2023-04-15T00:28:22;12.30;88.10
27940;DHT22;15275;51.716;14.324;2023-04-15T00:30:48;12.30;88.10
27940;DHT22;15275;51.716;14.324;2023-04-15T00:33:14;12.30;88.10
27940;DHT22;15275;51.716;14.324;2023-04-15T00:35:41;12.30;88.10
27940;DHT22;15275;51.716;14.324;2023-04-15T00:38:06;12.30;88.10
27940;DHT22;15275;51.716;14.324;2023-04-15T00:40:33;12.30;88.20
27940;DHT22;15275;51.716;14.324;2023-04-15T00:42:59;12.30;88.10
27940;DHT22;15275;51.716;14.324;2023-04-15T00:45:26;12.40;88.10
27940;DHT22;15275;51.716;14.324;2023-04-15T00:47:52;12.40;88.10
27940;DHT22;15275;51.716;14.324;2023-04-15T00:50:18;12.40;88.10
27940;DHT22;15275;51.716;14.324;2023-04-15T00:52:44;12.40;88.10
27940;DHT22;15275;51.716;14.324;2023-04-15T00:55:11;12.40;88.10
27940;DHT22;15275;51.716;14.324;2023-04-15T00:57:38;12.40;88.00
27940;DHT22;15275;51.716;14.324;2023-04-15T01:00:05;12.40;88.00
27940;DHT22;15275;51.716;14.324;2023-04-15T01:02:34;12.40;88.00
27940;DHT22;15275;51.716;14.324;2023-04-15T01:05:00;12.40;87.90
27940;DHT22;15275;51.716;14.324;2023-04-15T01:07:27;12.40;88.00
27940;DHT22;15275;51.716;14.324;2023-04-15T01:09:52;12.40;87.90
27940;DHT22;15275;51.716;14.324;2023-04-15T01:12:19;12.40;87.90
27940;DHT22;15275;51.716;14.324;2023-04-15T01:14:45;12.40;88.00
27940;DHT22;15275;51.716;14.324;2023-04-15T01:17:11;12.40;88.00
27940;DHT22;15275;51.716;14.324;2023-04-15T01:19:37;12.40;87.90
27940;DHT22;15275;51.716;14.324;2023-04-15T01:22:04;12.40;87.90
27940;DHT22;15275;51.716;14.324;2023-04-15T01:24:31;12.40;87.90
27940;DHT22;15275;51.716;14.324;2023-04-15T01:26:58;12.40;87.90
27940;DHT22;15275;51.716;14.324;2023-04-15T01:29:24;12.40;88.00
27940;DHT22;15275;51.716;14.324;2023-04-15T01:31:54;12.40;88.00
27940;DHT22;15275;51.716;14.324;2023-04-15T01:34:21;12.40;87.90
27940;DHT22;15275;51.716;14.324;2023-04-15T01:36:47;12.40;87.90
27940;DHT22;15275;51.716;14.324;2023-04-15T01:39:13;12.40;87.90
27940;DHT22;15275;51.716;14.324;2023-04-15T01:41:39;12.40;88.00
27940;DHT22;15275;51.716;14.324;2023-04-15T01:44:07;12.50;88.00
27940;DHT22;15275;51.716;14.324;2023-04-15T01:46:33;12.50;87.90
27940;DHT22;15275;51.716;14.324;2023-04-15T01:48:59;12.50;87.80
27940;DHT22;15275;51.716;14.324;2023-04-15T01:51:25;12.50;87.80
27940;DHT22;15275;51.716;14.324;2023-04-15T01:53:52;12.50;87.80
27940;DHT22;15275;51.716;14.324;2023-04-15T01:56:18;12.50;87.80
27940;DHT22;15275;51.716;14.324;2023-04-15T01:58:43;12.50;87.90
27940;DHT22;15275;51.716;14.324;2023-04-15T02:01:09;12.50;87.90
27940;DHT22;15275;51.716;14.324;2023-04-15T02:03:36;12.50;88.00
27940;DHT22;15275;51.716;14.324;2023-04-15T02:06:03;12.50;87.90
27940;DHT22;15275;51.716;14.324;2023-04-15T02:08:30;12.50;88.00
27940;DHT22;15275;51.716;14.324;2023-04-15T02:10:56;12.50;87.90
27940;DHT22;15275;51.716;14.324;2023-04-15T02:13:22;12.50;87.90
27940;DHT22;15275;51.716;14.324;2023-04-15T02:15:48;12.50;88.00
27940;DHT22;15275;51.716;14.324;2023-04-15T02:18:15;12.50;87.90
27940;DHT22;15275;51.716;14.324;2023-04-15T02:20:41;12.50;87.90
27940;DHT22;15275;51.716;14.324;2023-04-15T02:23:11;12.60;87.90
27940;DHT22;15275;51.716;14.324;2023-04-15T02:25:38;12.60;87.90
27940;DHT22;15275;51.716;14.324;2023-04-15T02:28:04;12.60;88.00
27940;DHT22;15275;51.716;14.324;2023-04-15T02:30:31;12.60;88.00
27940;DHT22;15275;51.716;14.324;2023-04-15T02:33:00;12.60;88.00
27940;DHT22;15275;51.716;14.324;2023-04-15T02:35:26;12.60;88.00
27940;DHT22;15275;51.716;14.324;2023-04-15T02:37:52;12.60;88.00
27940;DHT22;15275;51.716;14.324;2023-04-15T02:40:18;12.60;87.90
27940;DHT22;15275;51.716;14.324;2023-04-15T02:42:44;12.60;87.90
27940;DHT22;15275;51.716;14.324;2023-04-15T02:45:10;12.70;87.90
27940;DHT22;15275;51.716;14.324;2023-04-15T02:47:38;12.70;88.00
27940;DHT22;15275;51.716;14.324;2023-04-15T02:50:09;12.70;88.00
27940;DHT22;15275;51.716;14.324;2023-04-15T02:52:38;12.70;87.90
27940;DHT22;15275;51.716;14.324;2023-04-15T02:55:06;12.70;87.90
27940;DHT22;15275;51.716;14.324;2023-04-15T02:57:32;12.70;87.90
27940;DHT22;15275;51.716;14.324;2023-04-15T02:59:59;12.70;87.90
27940;DHT22;15275;51.716;14.324;2023-04-15T03:02:25;12.70;87.90
27940;DHT22;15275;51.716;14.324;2023-04-15T03:04:50;12.80;87.90
27940;DHT22;15275;51.716;14.324;2023-04-15T03:07:17;12.80;87.90
27940;DHT22;15275;51.716;14.324;2023-04-15T03:09:44;12.80;87.90
27940;DHT22;15275;51.716;14.324;2023-04-15T03:12:12;12.80;87.80
27940;DHT22;15275;51.716;14.324;2023-04-15T03:14:37;12.80;87.90
27940;DHT22;15275;51.716;14.324;2023-04-15T03:17:03;12.80;87.90
27940;DHT22;15275;51.716;14.324;2023-04-15T03:19:29;12.80;88.00
27940;DHT22;15275;51.716;14.324;2023-04-15T03:21:56;12.80;88.10
27940;DHT22;15275;51.716;14.324;2023-04-15T03:24:22;12.80;88.10
27940;DHT22;15275;51.716;14.324;2023-04-15T03:26:49;12.80;88.10
27940;DHT22;15275;51.716;14.324;2023-04-15T03:29:15;12.80;88.10
27940;DHT22;15275;51.716;14.324;2023-04-15T03:31:41;12.80;88.20
27940;DHT22;15275;51.716;14.324;2023-04-15T03:34:06;12.80;88.20
27940;DHT22;15275;51.716;14.324;2023-04-15T03:36:32;12.80;88.20
27940;DHT22;15275;51.716;14.324;2023-04-15T03:38:58;12.90;88.20
27940;DHT22;15275;51.716;14.324;2023-04-15T03:41:26;12.90;88.10
27940;DHT22;15275;51.716;14.324;2023-04-15T03:43:53;12.90;88.10
27940;DHT22;15275;51.716;14.324;2023-04-15T03:46:19;12.90;88.00
27940;DHT22;15275;51.716;14.324;2023-04-15T03:48:46;12.90;88.00
27940;DHT22;15275;51.716;14.324;2023-04-15T03:51:12;12.90;88.00
27940;DHT22;15275;51.716;14.324;2023-04-15T03:53:37;12.90;88.00
27940;DHT22;15275;51.716;14.324;2023-04-15T03:56:03;12.90;87.90
27940;DHT22;15275;51.716;14.324;2023-04-15T03:58:30;12.90;87.90
27940;DHT22;15275;51.716;14.324;2023-04-15T04:00:55;12.90;88.00
27940;DHT22;15275;51.716;14.324;2023-04-15T04:03:21;12.90;87.90
27940;DHT22;15275;51.716;14.324;2023-04-15T04:05:47;12.90;87.90
27940;DHT22;15275;51.716;14.324;2023-04-15T04:08:13;12.90;87.90
27940;DHT22;15275;51.716;14.324;2023-04-15T04:10:41;12.90;87.90
27940;DHT22;15275;51.716;14.324;2023-04-15T04:13:07;12.90;87.90
27940;DHT22;15275;51.716;14.324;2023-04-15T04:15:32;12.90;88.00
27940;DHT22;15275;51.716;14.324;2023-04-15T04:17:58;12.90;87.90
27940;DHT22;15275;51.716;14.324;2023-04-15T04:20:24;12.90;87.90
27940;DHT22;15275;51.716;14.324;2023-04-15T04:22:50;12.90;87.90
27940;DHT22;15275;51.716;14.324;2023-04-15T04:25:16;12.90;87.90
27940;DHT22;15275;51.716;14.324;2023-04-15T04:27:42;12.90;87.90
27940;DHT22;15275;51.716;14.324;2023-04-15T04:30:08;12.90;88.00
27940;DHT22;15275;51.716;14.324;2023-04-15T04:32:34;12.90;88.00
27940;DHT22;15275;51.716;14.324;2023-04-15T04:35:00;12.90;87.90
27940;DHT22;15275;51.716;14.324;2023-04-15T04:37:25;12.90;87.90
27940;DHT22;15275;51.716;14.324;2023-04-15T04:39:51;12.90;87.90
27940;DHT22;15275;51.716;14.324;2023-04-15T04:42:17;12.90;87.90
27940;DHT22;15275;51.716;14.324;2023-04-15T04:44:43;12.80;87.90
27940;DHT22;15275;51.716;14.324;2023-04-15T04:47:09;12.80;88.00
27940;DHT22;15275;51.716;14.324;2023-04-15T04:49:34;12.90;88.00
27940;DHT22;15275;51.716;14.324;2023-04-15T04:52:01;12.90;88.10
27940;DHT22;15275;51.716;14.324;2023-04-15T04:54:27;12.80;88.10
27940;DHT22;15275;51.716;14.324;2023-04-15T04:56:52;12.90;88.10
27940;DHT22;15275;51.716;14.324;2023-04-15T04:59:18;12.90;88.00
27940;DHT22;15275;51.716;14.324;2023-04-15T05:01:44;12.90;87.90
27940;DHT22;15275;51.716;14.324;2023-04-15T05:04:10;12.90;88.00
27940;DHT22;15275;51.716;14.324;2023-04-15T05:06:36;12.90;88.00
27940;DHT22;15275;51.716;14.324;2023-04-15T05:09:02;12.90;87.90
27940;DHT22;15275;51.716;14.324;2023-04-15T05:11:28;12.90;88.00
27940;DHT22;15275;51.716;14.324;2023-04-15T05:13:54;12.90;88.00
27940;DHT22;15275;51.716;14.324;2023-04-15T05:16:20;12.90;88.00
27940;DHT22;15275;51.716;14.324;2023-04-15T05:18:46;12.90;87.90
27940;DHT22;15275;51.716;14.324;2023-04-15T05:21:12;12.90;88.00
27940;DHT22;15275;51.716;14.324;2023-04-15T05:23:38;13.00;88.00
27940;DHT22;15275;51.716;14.324;2023-04-15T05:26:04;13.00;87.90
27940;DHT22;15275;51.716;14.324;2023-04-15T05:28:30;13.00;87.90
27940;DHT22;15275;51.716;14.324;2023-04-15T05:30:56;13.00;87.90
27940;DHT22;15275;51.716;14.324;2023-04-15T05:33:22;13.00;88.00
27940;DHT22;15275;51.716;14.324;2023-04-15T05:35:48;13.00;87.90
27940;DHT22;15275;51.716;14.324;2023-04-15T05:38:13;13.00;87.90
27940;DHT22;15275;51.716;14.324;2023-04-15T05:40:40;13.00;87.90
27940;DHT22;15275;51.716;14.324;2023-04-15T05:43:05;13.00;87.80
27940;DHT22;15275;51.716;14.324;2023-04-15T05:45:31;13.00;87.70
27940;DHT22;15275;51.716;14.324;2023-04-15T05:47:57;13.00;87.70
27940;DHT22;15275;51.716;14.324;2023-04-15T05:50:23;13.00;87.80
27940;DHT22;15275;51.716;14.324;2023-04-15T05:52:49;13.00;87.80
27940;DHT22;15275;51.716;14.324;2023-04-15T05:55:15;13.00;87.70
27940;DHT22;15275;51.716;14.324;2023-04-15T05:57:40;13.00;87.60
27940;DHT22;15275;51.716;14.324;2023-04-15T06:00:07;13.00;87.60
27940;DHT22;15275;51.716;14.324;2023-04-15T06:02:33;13.00;87.50
27940;DHT22;15275;51.716;14.324;2023-04-15T06:04:59;13.00;87.50
27940;DHT22;15275;51.716;14.324;2023-04-15T06:07:25;13.00;87.40
27940;DHT22;15275;51.716;14.324;2023-04-15T06:09:51;13.00;87.30
27940;DHT22;15275;51.716;14.324;2023-04-15T06:12:16;13.00;87.30
27940;DHT22;15275;51.716;14.324;2023-04-15T06:14:42;13.00;87.20
27940;DHT22;15275;51.716;14.324;2023-04-15T06:17:08;13.00;87.20
27940;DHT22;15275;51.716;14.324;2023-04-15T06:19:34;13.00;87.30
27940;DHT22;15275;51.716;14.324;2023-04-15T06:22:01;13.00;87.30
27940;DHT22;15275;51.716;14.324;2023-04-15T06:24:28;13.00;87.20
27940;DHT22;15275;51.716;14.324;2023-04-15T06:26:53;13.00;87.20
27940;DHT22;15275;51.716;14.324;2023-04-15T06:29:19;13.00;87.20
27940;DHT22;15275;51.716;14.324;2023-04-15T06:31:48;13.00;87.20
27940;DHT22;15275;51.716;14.324;2023-04-15T06:34:14;13.00;87.30
27940;DHT22;15275;51.716;14.324;2023-04-15T06:36:40;13.00;87.30
27940;DHT22;15275;51.716;14.324;2023-04-15T06:39:06;13.00;87.40
27940;DHT22;15275;51.716;14.324;2023-04-15T06:41:31;13.00;87.40
27940;DHT22;15275;51.716;14.324;2023-04-15T06:43:58;13.00;87.40
27940;DHT22;15275;51.716;14.324;2023-04-15T06:46:24;13.00;87.40
27940;DHT22;15275;51.716;14.324;2023-04-15T06:48:50;13.00;87.30
27940;DHT22;15275;51.716;14.324;2023-04-15T06:51:16;13.00;87.30
27940;DHT22;15275;51.716;14.324;2023-04-15T06:53:42;13.00;87.20
27940;DHT22;15275;51.716;14.324;2023-04-15T06:56:09;13.00;87.30
27940;DHT22;15275;51.716;14.324;2023-04-15T06:58:35;13.00;87.30
27940;DHT22;15275;51.716;14.324;2023-04-15T07:01:01;12.90;87.20
27940;DHT22;15275;51.716;14.324;2023-04-15T07:03:27;12.90;87.30
27940;DHT22;15275;51.716;14.324;2023-04-15T07:05:53;12.90;87.40
27940;DHT22;15275;51.716;14.324;2023-04-15T07:08:20;12.90;87.40
27940;DHT22;15275;51.716;14.324;2023-04-15T07:10:46;12.90;87.50
27940;DHT22;15275;51.716;14.324;2023-04-15T07:13:12;12.80;87.60
27940;DHT22;15275;51.716;14.324;2023-04-15T07:15:38;12.80;87.60
27940;DHT22;15275;51.716;14.324;2023-04-15T07:18:04;12.80;87.80
27940;DHT22;15275;51.716;14.324;2023-04-15T07:20:31;12.80;88.00
27940;DHT22;15275;51.716;14.324;2023-04-15T07:22:57;12.80;88.00
27940;DHT22;15275;51.716;14.324;2023-04-15T07:25:23;12.80;88.00
27940;DHT22;15275;51.716;14.324;2023-04-15T07:27:49;12.80;88.10
27940;DHT22;15275;51.716;14.324;2023-04-15T07:30:15;12.80;88.20
27940;DHT22;15275;51.716;14.324;2023-04-15T07:32:41;12.80;88.30
27940;DHT22;15275;51.716;14.324;2023-04-15T07:35:07;12.80;88.20
27940;DHT22;15275;51.716;14.324;2023-04-15T07:37:34;12.80;88.30
27940;DHT22;15275;51.716;14.324;2023-04-15T07:40:00;12.80;88.30
27940;DHT22;15275;51.716;14.324;2023-04-15T07:42:26;12.80;88.50
27940;DHT22;15275;51.716;14.324;2023-04-15T07:44:53;12.80;88.50
27940;DHT22;15275;51.716;14.324;2023-04-15T07:47:19;12.90;88.60
27940;DHT22;15275;51.716;14.324;2023-04-15T07:49:45;12.90;88.40
27940;DHT22;15275;51.716;14.324;2023-04-15T07:52:11;12.90;88.50
27940;DHT22;15275;51.716;14.324;2023-04-15T07:54:37;12.90;88.50
27940;DHT22;15275;51.716;14.324;2023-04-15T07:57:04;13.00;88.30
27940;DHT22;15275;51.716;14.324;2023-04-15T07:59:30;13.00;88.40
27940;DHT22;15275;51.716;14.324;2023-04-15T08:01:57;13.00;88.50
27940;DHT22;15275;51.716;14.324;2023-04-15T08:04:24;13.00;88.40
27940;DHT22;15275;51.716;14.324;2023-04-15T08:06:49;13.00;88.40
27940;DHT22;15275;51.716;14.324;2023-04-15T08:09:16;13.00;88.40
27940;DHT22;15275;51.716;14.324;2023-04-15T08:11:42;13.00;88.20
27940;DHT22;15275;51.716;14.324;2023-04-15T08:14:08;13.00;88.10
27940;DHT22;15275;51.716;14.324;2023-04-15T08:16:34;13.10;88.00
27940;DHT22;15275;51.716;14.324;2023-04-15T08:19:00;13.10;87.90
27940;DHT22;15275;51.716;14.324;2023-04-15T08:21:26;13.10;88.00
27940;DHT22;15275;51.716;14.324;2023-04-15T08:23:52;13.10;88.00
27940;DHT22;15275;51.716;14.324;2023-04-15T08:26:19;13.00;88.10
27940;DHT22;15275;51.716;14.324;2023-04-15T08:28:46;13.10;88.10
27940;DHT22;15275;51.716;14.324;2023-04-15T08:31:17;13.10;88.20
27940;DHT22;15275;51.716;14.324;2023-04-15T08:33:43;13.10;88.20
27940;DHT22;15275;51.716;14.324;2023-04-15T08:36:09;13.10;88.20
27940;DHT22;15275;51.716;14.324;2023-04-15T08:38:35;13.10;88.10
27940;DHT22;15275;51.716;14.324;2023-04-15T08:41:38;13.10;88.20
27940;DHT22;15275;51.716;14.324;2023-04-15T08:44:13;13.10;87.90
27940;DHT22;15275;51.716;14.324;2023-04-15T08:46:40;13.10;88.20
27940;DHT22;15275;51.716;14.324;2023-04-15T08:49:12;13.10;88.50
27940;DHT22;15275;51.716;14.324;2023-04-15T08:51:39;13.10;88.50
27940;DHT22;15275;51.716;14.324;2023-04-15T08:54:07;13.20;88.50
27940;DHT22;15275;51.716;14.324;2023-04-15T08:56:33;13.20;88.60
27940;DHT22;15275;51.716;14.324;2023-04-15T08:59:01;13.20;88.50
27940;DHT22;15275;51.716;14.324;2023-04-15T09:01:28;13.20;88.40
27940;DHT22;15275;51.716;14.324;2023-04-15T09:03:55;13.20;88.20
27940;DHT22;15275;51.716;14.324;2023-04-15T09:06:22;13.20;88.10
27940;DHT22;15275;51.716;14.324;2023-04-15T09:08:51;13.30;88.00
27940;DHT22;15275;51.716;14.324;2023-04-15T09:11:18;13.20;88.20
27940;DHT22;15275;51.716;14.324;2023-04-15T09:13:44;13.30;88.20
27940;DHT22;15275;51.716;14.324;2023-04-15T09:16:10;13.30;88.30
27940;DHT22;15275;51.716;14.324;2023-04-15T09:18:38;13.30;88.30
27940;DHT22;15275;51.716;14.324;2023-04-15T09:23:37;13.40;88.40
27940;DHT22;15275;51.716;14.324;2023-04-15T09:26:05;13.40;88.20
27940;DHT22;15275;51.716;14.324;2023-04-15T09:28:32;13.40;87.80
27940;DHT22;15275;51.716;14.324;2023-04-15T09:31:01;13.40;87.60
27940;DHT22;15275;51.716;14.324;2023-04-15T09:33:28;13.40;87.50
27940;DHT22;15275;51.716;14.324;2023-04-15T09:36:02;13.40;87.50
27940;DHT22;15275;51.716;14.324;2023-04-15T09:38:30;13.40;87.20
27940;DHT22;15275;51.716;14.324;2023-04-15T09:40:57;13.40;87.30
27940;DHT22;15275;51.716;14.324;2023-04-15T09:43:39;13.40;87.40
27940;DHT22;15275;51.716;14.324;2023-04-15T09:46:05;13.40;86.70
27940;DHT22;15275;51.716;14.324;2023-04-15T09:48:31;13.30;87.00
27940;DHT22;15275;51.716;14.324;2023-04-15T09:50:58;13.30;87.30
27940;DHT22;15275;51.716;14.324;2023-04-15T09:53:25;13.40;87.50
27940;DHT22;15275;51.716;14.324;2023-04-15T09:55:58;13.40;87.70
27940;DHT22;15275;51.716;14.324;2023-04-15T09:58:29;13.40;88.00
27940;DHT22;15275;51.716;14.324;2023-04-15T10:00:57;13.40;88.40
27940;DHT22;15275;51.716;14.324;2023-04-15T10:03:25;13.50;88.70
27940;DHT22;15275;51.716;14.324;2023-04-15T10:05:57;13.60;88.90
27940;DHT22;15275;51.716;14.324;2023-04-15T10:08:27;13.70;88.70
27940;DHT22;15275;51.716;14.324;2023-04-15T10:10:54;13.80;88.50
27940;DHT22;15275;51.716;14.324;2023-04-15T10:13:24;13.90;88.40
27940;DHT22;15275;51.716;14.324;2023-04-15T10:16:04;14.00;88.10
27940;DHT22;15275;51.716;14.324;2023-04-15T10:18:42;14.00;87.90
27940;DHT22;15275;51.716;14.324;2023-04-15T10:21:09;14.10;87.90
27940;DHT22;15275;51.716;14.324;2023-04-15T10:23:35;14.20;87.90
27940;DHT22;15275;51.716;14.324;2023-04-15T10:26:03;14.20;87.80
27940;DHT22;15275;51.716;14.324;2023-04-15T10:28:29;14.30;87.80
27940;DHT22;15275;51.716;14.324;2023-04-15T10:30:56;14.40;87.60
27940;DHT22;15275;51.716;14.324;2023-04-15T10:33:23;14.40;87.50
27940;DHT22;15275;51.716;14.324;2023-04-15T10:35:50;14.50;87.10
27940;DHT22;15275;51.716;14.324;2023-04-15T10:38:44;14.60;87.10
27940;DHT22;15275;51.716;14.324;2023-04-15T10:41:22;14.70;86.20
27940;DHT22;15275;51.716;14.324;2023-04-15T10:43:59;14.70;87.20
27940;DHT22;15275;51.716;14.324;2023-04-15T10:46:45;14.80;87.30
27940;DHT22;15275;51.716;14.324;2023-04-15T10:49:24;14.90;86.40
27940;DHT22;15275;51.716;14.324;2023-04-15T10:51:52;15.00;86.30
27940;DHT22;15275;51.716;14.324;2023-04-15T11:02:46;15.30;85.00
27940;DHT22;15275;51.716;14.324;2023-04-15T11:05:14;15.40;85.70
27940;DHT22;15275;51.716;14.324;2023-04-15T11:07:48;15.40;87.00
27940;DHT22;15275;51.716;14.324;2023-04-15T11:12:55;15.70;86.40
27940;DHT22;15275;51.716;14.324;2023-04-15T11:17:53;15.90;86.70
27940;DHT22;15275;51.716;14.324;2023-04-15T11:20:20;16.00;86.60
27940;DHT22;15275;51.716;14.324;2023-04-15T11:22:53;16.10;85.90
27940;DHT22;15275;51.716;14.324;2023-04-15T11:25:30;16.20;84.40
27940;DHT22;15275;51.716;14.324;2023-04-15T11:27:58;16.20;84.20
27940;DHT22;15275;51.716;14.324;2023-04-15T11:30:27;16.20;84.70
27940;DHT22;15275;51.716;14.324;2023-04-15T11:32:58;16.30;84.40
27940;DHT22;15275;51.716;14.324;2023-04-15T11:35:25;16.30;84.10
27940;DHT22;15275;51.716;14.324;2023-04-15T11:37:51;16.30;83.90
27940;DHT22;15275;51.716;14.324;2023-04-15T11:40:22;16.20;83.80
27940;DHT22;15275;51.716;14.324;2023-04-15T11:43:10;16.20;83.50
27940;DHT22;15275;51.716;14.324;2023-04-15T11:45:50;16.20;82.40
27940;DHT22;15275;51.716;14.324;2023-04-15T11:48:26;16.20;83.40
27940;DHT22;15275;51.716;14.324;2023-04-15T11:50:57;16.20;84.00
27940;DHT22;15275;51.716;14.324;2023-04-15T11:53:43;16.20;83.50
27940;DHT22;15275;51.716;14.324;2023-04-15T11:56:20;16.10;82.80
27940;DHT22;15275;51.716;14.324;2023-04-15T11:58:51;16.10;83.80
27940;DHT22;15275;51.716;14.324;2023-04-15T12:01:18;16.10;83.60
27940;DHT22;15275;51.716;14.324;2023-04-15T12:03:46;16.00;83.60
27940;DHT22;15275;51.716;14.324;2023-04-15T12:06:21;16.00;83.50
27940;DHT22;15275;51.716;14.324;2023-04-15T12:13:57;16.00;83.60
27940;DHT22;15275;51.716;14.324;2023-04-15T12:16:27;16.00;83.60
27940;DHT22;15275;51.716;14.324;2023-04-15T12:18:56;16.00;83.60
27940;DHT22;15275;51.716;14.324;2023-04-15T12:21:31;16.00;83.70
27940;DHT22;15275;51.716;14.324;2023-04-15T12:24:03;16.00;83.70
27940;DHT22;15275;51.716;14.324;2023-04-15T12:26:35;16.00;83.80
27940;DHT22;15275;51.716;14.324;2023-04-15T12:29:03;16.00;83.60
27940;DHT22;15275;51.716;14.324;2023-04-15T12:31:31;16.00;83.60
27940;DHT22;15275;51.716;14.324;2023-04-15T12:33:58;16.00;83.70
27940;DHT22;15275;51.716;14.324;2023-04-15T12:36:26;16.00;83.30
27940;DHT22;15275;51.716;14.324;2023-04-15T12:38:52;15.90;83.30
27940;DHT22;15275;51.716;14.324;2023-04-15T12:41:19;15.90;83.40
27940;DHT22;15275;51.716;14.324;2023-04-15T12:43:46;15.90;83.70
27940;DHT22;15275;51.716;14.324;2023-04-15T12:46:12;16.00;84.30
27940;DHT22;15275;51.716;14.324;2023-04-15T12:48:39;16.00;84.40
27940;DHT22;15275;51.716;14.324;2023-04-15T12:51:06;16.00;84.80
27940;DHT22;15275;51.716;14.324;2023-04-15T12:53:31;16.10;84.90
27940;DHT22;15275;51.716;14.324;2023-04-15T12:55:59;16.20;84.70
27940;DHT22;15275;51.716;14.324;2023-04-15T12:58:24;16.30;84.50
27940;DHT22;15275;51.716;14.324;2023-04-15T13:00:50;16.30;84.10
27940;DHT22;15275;51.716;14.324;2023-04-15T13:03:16;16.40;83.90
27940;DHT22;15275;51.716;14.324;2023-04-15T13:05:42;16.40;83.60
27940;DHT22;15275;51.716;14.324;2023-04-15T13:08:08;16.40;83.60
27940;DHT22;15275;51.716;14.324;2023-04-15T13:10:34;16.50;83.60
27940;DHT22;15275;51.716;14.324;2023-04-15T13:13:03;16.50;83.40
27940;DHT22;15275;51.716;14.324;2023-04-15T13:15:29;16.60;83.30
27940;DHT22;15275;51.716;14.324;2023-04-15T13:17:55;16.60;83.50
27940;DHT22;15275;51.716;14.324;2023-04-15T13:20:21;16.70;83.90
27940;DHT22;15275;51.716;14.324;2023-04-15T13:22:47;16.70;83.80
27940;DHT22;15275;51.716;14.324;2023-04-15T13:25:13;16.80;83.60
27940;DHT22;15275;51.716;14.324;2023-04-15T13:27:39;16.90;83.70
27940;DHT22;15275;51.716;14.324;2023-04-15T13:30:05;17.00;83.90
27940;DHT22;15275;51.716;14.324;2023-04-15T13:32:32;17.10;83.50
27940;DHT22;15275;51.716;14.324;2023-04-15T13:34:58;17.10;83.50
27940;DHT22;15275;51.716;14.324;2023-04-15T13:37:28;17.20;82.70
27940;DHT22;15275;51.716;14.324;2023-04-15T13:39:55;17.30;81.80
27940;DHT22;15275;51.716;14.324;2023-04-15T13:42:22;17.30;81.80
27940;DHT22;15275;51.716;14.324;2023-04-15T13:44:51;17.30;81.60
27940;DHT22;15275;51.716;14.324;2023-04-15T13:47:18;17.30;81.00
27940;DHT22;15275;51.716;14.324;2023-04-15T13:49:44;17.20;81.00
27940;DHT22;15275;51.716;14.324;2023-04-15T13:52:11;17.20;81.20
27940;DHT22;15275;51.716;14.324;2023-04-15T13:54:37;17.20;80.80
27940;DHT22;15275;51.716;14.324;2023-04-15T13:57:04;17.10;80.80
27940;DHT22;15275;51.716;14.324;2023-04-15T13:59:32;17.10;81.20
27940;DHT22;15275;51.716;14.324;2023-04-15T14:01:59;17.10;81.80
27940;DHT22;15275;51.716;14.324;2023-04-15T14:04:25;17.10;82.30
27940;DHT22;15275;51.716;14.324;2023-04-15T14:06:51;17.10;82.40
27940;DHT22;15275;51.716;14.324;2023-04-15T14:09:17;17.10;81.60
27940;DHT22;15275;51.716;14.324;2023-04-15T14:11:43;17.10;81.70
27940;DHT22;15275;51.716;14.324;2023-04-15T14:14:09;17.20;82.00
27940;DHT22;15275;51.716;14.324;2023-04-15T14:16:35;17.20;82.10
27940;DHT22;15275;51.716;14.324;2023-04-15T14:19:01;17.20;82.20
27940;DHT22;15275;51.716;14.324;2023-04-15T14:21:27;17.30;81.80
27940;DHT22;15275;51.716;14.324;2023-04-15T14:23:54;17.30;81.40
27940;DHT22;15275;51.716;14.324;2023-04-15T14:26:20;17.40;81.50
27940;DHT22;15275;51.716;14.324;2023-04-15T14:28:46;17.40;81.60
27940;DHT22;15275;51.716;14.324;2023-04-15T14:31:13;17.40;81.10
27940;DHT22;15275;51.716;14.324;2023-04-15T14:33:39;17.40;81.50
27940;DHT22;15275;51.716;14.324;2023-04-15T14:36:06;17.40;81.00
27940;DHT22;15275;51.716;14.324;2023-04-15T14:38:33;17.40;80.50
27940;DHT22;15275;51.716;14.324;2023-04-15T14:41:05;17.50;80.40
27940;DHT22;15275;51.716;14.324;2023-04-15T14:43:31;17.50;80.50
27940;DHT22;15275;51.716;14.324;2023-04-15T14:45:57;17.50;80.60
27940;DHT22;15275;51.716;14.324;2023-04-15T14:48:23;17.50;80.20
27940;DHT22;15275;51.716;14.324;2023-04-15T14:50:49;17.50;79.90
27940;DHT22;15275;51.716;14.324;2023-04-15T14:53:15;17.50;80.00
27940;DHT22;15275;51.716;14.324;2023-04-15T14:55:41;17.50;79.90
27940;DHT22;15275;51.716;14.324;2023-04-15T14:58:08;17.50;79.50
27940;DHT22;15275;51.716;14.324;2023-04-15T15:00:34;17.50;79.60
27940;DHT22;15275;51.716;14.324;2023-04-15T15:03:03;17.50;79.40
27940;DHT22;15275;51.716;14.324;2023-04-15T15:05:37;17.40;79.40
27940;DHT22;15275;51.716;14.324;2023-04-15T15:08:07;17.40;79.60
27940;DHT22;15275;51.716;14.324;2023-04-15T15:10:37;17.30;79.70
27940;DHT22;15275;51.716;14.324;2023-04-15T15:13:05;17.30;79.20
27940;DHT22;15275;51.716;14.324;2023-04-15T15:15:32;17.20;79.20
27940;DHT22;15275;51.716;14.324;2023-04-15T15:17:59;17.20;79.30
27940;DHT22;15275;51.716;14.324;2023-04-15T15:20:26;17.10;79.40
27940;DHT22;15275;51.716;14.324;2023-04-15T15:22:53;17.10;79.50
27940;DHT22;15275;51.716;14.324;2023-04-15T15:25:18;17.00;79.50
27940;DHT22;15275;51.716;14.324;2023-04-15T15:27:45;17.00;79.50
27940;DHT22;15275;51.716;14.324;2023-04-15T15:30:11;16.90;79.70
27940;DHT22;15275;51.716;14.324;2023-04-15T15:32:39;16.90;79.60
27940;DHT22;15275;51.716;14.324;2023-04-15T15:35:06;16.90;79.60
27940;DHT22;15275;51.716;14.324;2023-04-15T15:37:32;16.80;79.80